Time;durP1;ratioP1;P1;durP2;ratioP2;P2;SDS_P1;SDS_P2;PMS_P1;PMS_P2;Temp;Humidity;BMP_temperature;BMP_pressure;BME280_temperature;BME280_humidity;BME280_pressure;Samples;Min_cycle;Max_cycle;Signal;HPM_P1;HPM_P2
2019/04/09 00:00:05;;;;;;;25;21.5;;;;;;;9.1;83.25879;94580.55;;;;
2019/04/09 00:01:12;;;;;;;25;21.5;;;;;;;9.1;83.25879;94580.55;;;;
2019/04/09 00:02:51;;;;;;;25.45;20.35;;;;;;;9.07;83.45508;94575.53;;;;
2019/04/09 00:03:53;;;;;;;25.45;20.35;;;;;;;9.07;83.45508;94575.53;;;;
2019/04/09 00:04:54;;;;;;;25.45;20.35;;;;;;;9.07;83.45508;94575.53;;;;
2019/04/09 00:05:55;;;;;;;25.45;20.35;;;;;;;9.07;83.45508;94575.53;;;;
2019/04/09 00:09:57;;;;;;;25.45;20.35;;;;;;;9.07;83.45508;94575.53;;;;
2019/04/09 00:10:58;;;;;;;25.45;20.35;;;;;;;9.07;83.45508;94575.53;;;;
2019/04/09 00:11:59;;;;;;;25.45;20.35;;;;;;;9.07;83.45508;94575.53;;;;
2019/04/09 00:13:00;;;;;;;29.8;21.4;;;;;;;9.03;83.49121;94568.98;;;;
2019/04/09 00:14:02;;;;;;;29.8;21.4;;;;;;;9.03;83.49121;94568.98;;;;
2019/04/09 00:15:03;;;;;;;29.8;21.4;;;;;;;9.03;83.49121;94568.98;;;;
2019/04/09 00:16:04;;;;;;;29.8;21.4;;;;;;;9.03;83.49121;94568.98;;;;
2019/04/09 00:17:05;;;;;;;29.8;21.4;;;;;;;9.03;83.49121;94568.98;;;;
2019/04/09 00:18:06;;;;;;;29.8;21.4;;;;;;;9.03;83.49121;94568.98;;;;
2019/04/09 00:19:07;;;;;;;29.8;21.4;;;;;;;9.03;83.49121;94568.98;;;;
2019/04/09 00:20:09;;;;;;;29.8;21.4;;;;;;;9.03;83.49121;94568.98;;;;
2019/04/09 00:21:10;;;;;;;29.8;21.4;;;;;;;9.03;83.49121;94568.98;;;;
2019/04/09 00:22:11;;;;;;;29.8;21.4;;;;;;;9.03;83.49121;94568.98;;;;
2019/04/09 00:23:12;;;;;;;24.7;20.65;;;;;;;9.04;83.70313;94565.78;;;;
2019/04/09 00:24:13;;;;;;;24.7;20.65;;;;;;;9.04;83.70313;94565.78;;;;
2019/04/09 00:25:14;;;;;;;24.7;20.65;;;;;;;9.04;83.70313;94565.78;;;;
2019/04/09 00:26:16;;;;;;;24.7;20.65;;;;;;;9.04;83.70313;94565.78;;;;
2019/04/09 00:27:17;;;;;;;24.7;20.65;;;;;;;9.04;83.70313;94565.78;;;;
2019/04/09 00:28:18;;;;;;;24.7;20.65;;;;;;;9.04;83.70313;94565.78;;;;
2019/04/09 00:29:19;;;;;;;24.7;20.65;;;;;;;9.04;83.70313;94565.78;;;;
2019/04/09 00:30:20;;;;;;;24.7;20.65;;;;;;;9.04;83.70313;94565.78;;;;
2019/04/09 00:31:21;;;;;;;24.7;20.65;;;;;;;9.04;83.70313;94565.78;;;;
2019/04/09 00:32:23;;;;;;;24.7;20.65;;;;;;;9.04;83.70313;94565.78;;;;
2019/04/09 00:33:24;;;;;;;24.7;20.65;;;;;;;9.04;83.70313;94565.78;;;;
2019/04/09 00:34:25;;;;;;;25.9;21.35;;;;;;;8.95;83.67676;94558.22;;;;
2019/04/09 00:35:26;;;;;;;25.9;21.35;;;;;;;8.95;83.67676;94558.22;;;;
2019/04/09 00:36:27;;;;;;;25.9;21.35;;;;;;;8.95;83.67676;94558.22;;;;
2019/04/09 00:37:28;;;;;;;25.9;21.35;;;;;;;8.95;83.67676;94558.22;;;;
2019/04/09 00:38:30;;;;;;;25.9;21.35;;;;;;;8.95;83.67676;94558.22;;;;
2019/04/09 00:39:31;;;;;;;25.9;21.35;;;;;;;8.95;83.67676;94558.22;;;;
2019/04/09 00:40:32;;;;;;;25.9;21.35;;;;;;;8.95;83.67676;94558.22;;;;
2019/04/09 00:41:33;;;;;;;25.9;21.35;;;;;;;8.95;83.67676;94558.22;;;;
2019/04/09 00:42:34;;;;;;;25.9;21.35;;;;;;;8.95;83.67676;94558.22;;;;
2019/04/09 00:43:36;;;;;;;25.9;21.35;;;;;;;8.95;83.67676;94558.22;;;;
2019/04/09 00:44:37;;;;;;;26.7;20.85;;;;;;;8.94;83.79102;94553.36;;;;
2019/04/09 00:45:38;;;;;;;26.7;20.85;;;;;;;8.94;83.79102;94553.36;;;;
2019/04/09 00:46:39;;;;;;;26.7;20.85;;;;;;;8.94;83.79102;94553.36;;;;
2019/04/09 00:47:40;;;;;;;26.7;20.85;;;;;;;8.94;83.79102;94553.36;;;;
2019/04/09 00:48:41;;;;;;;26.7;20.85;;;;;;;8.94;83.79102;94553.36;;;;
2019/04/09 00:49:43;;;;;;;26.7;20.85;;;;;;;8.94;83.79102;94553.36;;;;
2019/04/09 00:50:44;;;;;;;26.7;20.85;;;;;;;8.94;83.79102;94553.36;;;;
2019/04/09 00:51:45;;;;;;;26.7;20.85;;;;;;;8.94;83.79102;94553.36;;;;
2019/04/09 00:52:46;;;;;;;26.7;20.85;;;;;;;8.94;83.79102;94553.36;;;;
2019/04/09 00:53:47;;;;;;;26.7;20.85;;;;;;;8.94;83.79102;94553.36;;;;
2019/04/09 00:54:48;;;;;;;26.7;20.85;;;;;;;8.94;83.79102;94553.36;;;;
2019/04/09 00:55:50;;;;;;;26;21.65;;;;;;;8.88;83.87598;94548.97;;;;
2019/04/09 00:56:51;;;;;;;26;21.65;;;;;;;8.88;83.87598;94548.97;;;;
2019/04/09 00:57:52;;;;;;;26;21.65;;;;;;;8.88;83.87598;94548.97;;;;
2019/04/09 00:58:53;;;;;;;26;21.65;;;;;;;8.88;83.87598;94548.97;;;;
2019/04/09 00:59:54;;;;;;;26;21.65;;;;;;;8.88;83.87598;94548.97;;;;
2019/04/09 01:01:01;;;;;;;26;21.65;;;;;;;8.88;83.87598;94548.97;;;;
2019/04/09 01:02:03;;;;;;;26;21.65;;;;;;;8.88;83.87598;94548.97;;;;
2019/04/09 01:03:04;;;;;;;26;21.65;;;;;;;8.88;83.87598;94548.97;;;;
2019/04/09 01:04:05;;;;;;;26;21.65;;;;;;;8.88;83.87598;94548.97;;;;
2019/04/09 01:05:07;;;;;;;26;21.65;;;;;;;8.88;83.87598;94548.97;;;;
2019/04/09 01:06:08;;;;;;;26.6;21.6;;;;;;;8.91;83.97754;94543.2;;;;
2019/04/09 01:07:09;;;;;;;26.6;21.6;;;;;;;8.91;83.97754;94543.2;;;;
2019/04/09 01:08:10;;;;;;;26.6;21.6;;;;;;;8.91;83.97754;94543.2;;;;
2019/04/09 01:09:12;;;;;;;26.6;21.6;;;;;;;8.91;83.97754;94543.2;;;;
2019/04/09 01:10:14;;;;;;;26.6;21.6;;;;;;;8.91;83.97754;94543.2;;;;
2019/04/09 01:11:15;;;;;;;26.6;21.6;;;;;;;8.91;83.97754;94543.2;;;;
2019/04/09 01:12:16;;;;;;;26.6;21.6;;;;;;;8.91;83.97754;94543.2;;;;
2019/04/09 01:13:18;;;;;;;26.6;21.6;;;;;;;8.91;83.97754;94543.2;;;;
2019/04/09 01:14:19;;;;;;;26.6;21.6;;;;;;;8.91;83.97754;94543.2;;;;
2019/04/09 01:15:20;;;;;;;26.6;21.6;;;;;;;8.91;83.97754;94543.2;;;;
2019/04/09 01:16:21;;;;;;;27.8;23.1;;;;;;;8.84;84.0498;94545.12;;;;
2019/04/09 01:17:22;;;;;;;27.8;23.1;;;;;;;8.84;84.0498;94545.12;;;;
2019/04/09 01:18:24;;;;;;;27.8;23.1;;;;;;;8.84;84.0498;94545.12;;;;
2019/04/09 01:19:25;;;;;;;27.8;23.1;;;;;;;8.84;84.0498;94545.12;;;;
2019/04/09 01:20:26;;;;;;;27.8;23.1;;;;;;;8.84;84.0498;94545.12;;;;
2019/04/09 01:21:27;;;;;;;27.8;23.1;;;;;;;8.84;84.0498;94545.12;;;;
2019/04/09 01:22:29;;;;;;;27.8;23.1;;;;;;;8.84;84.0498;94545.12;;;;
2019/04/09 01:23:30;;;;;;;27.8;23.1;;;;;;;8.84;84.0498;94545.12;;;;
2019/04/09 01:24:32;;;;;;;27.8;23.1;;;;;;;8.84;84.0498;94545.12;;;;
2019/04/09 01:25:39;;;;;;;27.8;23.1;;;;;;;8.84;84.0498;94545.12;;;;
2019/04/09 01:26:50;;;;;;;27.8;23.1;;;;;;;8.84;84.0498;94545.12;;;;
2019/04/09 01:27:51;;;;;;;30;24.1;;;;;;;8.85;84.19824;94532.08;;;;
2019/04/09 01:30:00;;;;;;;30;24.1;;;;;;;8.85;84.19824;94532.08;;;;
2019/04/09 01:31:12;;;;;;;30;24.1;;;;;;;8.85;84.19824;94532.08;;;;
2019/04/09 01:32:23;;;;;;;30;24.1;;;;;;;8.85;84.19824;94532.08;;;;
2019/04/09 01:33:59;;;;;;;30;24.1;;;;;;;8.85;84.19824;94532.08;;;;
2019/04/09 01:35:07;;;;;;;30;24.1;;;;;;;8.85;84.19824;94532.08;;;;
2019/04/09 01:36:17;;;;;;;30;24.1;;;;;;;8.85;84.19824;94532.08;;;;
2019/04/09 01:37:27;;;;;;;30;24.1;;;;;;;8.85;84.19824;94532.08;;;;
2019/04/09 01:38:35;;;;;;;32.30001;25.5;;;;;;;8.77;84.52539;94531.02;;;;
2019/04/09 01:44:51;;;;;;;32.30001;25.5;;;;;;;8.77;84.52539;94531.02;;;;
2019/04/09 01:46:00;;;;;;;32.30001;25.5;;;;;;;8.77;84.52539;94531.02;;;;
2019/04/09 01:47:07;;;;;;;32.30001;25.5;;;;;;;8.77;84.52539;94531.02;;;;
2019/04/09 01:54:14;;;;;;;33.05;25.4;;;;;;;8.72;84.79102;94529.58;;;;
2019/04/09 01:55:23;;;;;;;33.05;25.4;;;;;;;8.72;84.79102;94529.58;;;;
2019/04/09 01:56:34;;;;;;;33.05;25.4;;;;;;;8.72;84.79102;94529.58;;;;
2019/04/09 02:08:56;;;;;;;33.4;25.2;;;;;;;8.63;85.10156;94534.25;;;;
2019/04/09 02:10:21;;;;;;;34.3;25.75;;;;;;;8.64;85.31543;94531.83;;;;
2019/04/09 02:11:36;;;;;;;34.3;25.75;;;;;;;8.64;85.31543;94531.83;;;;
2019/04/09 02:12:44;;;;;;;34.3;25.75;;;;;;;8.64;85.31543;94531.83;;;;
2019/04/09 02:13:52;;;;;;;34.3;25.75;;;;;;;8.64;85.31543;94531.83;;;;
2019/04/09 02:14:59;;;;;;;34.3;25.75;;;;;;;8.64;85.31543;94531.83;;;;
2019/04/09 02:16:08;;;;;;;34.3;25.75;;;;;;;8.64;85.31543;94531.83;;;;
2019/04/09 02:17:16;;;;;;;34.3;25.75;;;;;;;8.64;85.31543;94531.83;;;;
2019/04/09 02:29:15;;;;;;;36.30001;26.95;;;;;;;8.59;85.46582;94529.47;;;;
2019/04/09 02:30:56;;;;;;;36.30001;26.95;;;;;;;8.59;85.46582;94529.47;;;;
2019/04/09 02:33:10;;;;;;;36.75;26.8;;;;;;;8.68;86.09863;94536.61;;;;
2019/04/09 02:34:20;;;;;;;36.75;26.8;;;;;;;8.68;86.09863;94536.61;;;;
2019/04/09 02:37:26;;;;;;;36.75;26.8;;;;;;;8.68;86.09863;94536.61;;;;
2019/04/09 02:38:37;;;;;;;36.75;26.8;;;;;;;8.68;86.09863;94536.61;;;;
2019/04/09 02:39:46;;;;;;;36.75;26.8;;;;;;;8.68;86.09863;94536.61;;;;
2019/04/09 02:41:02;;;;;;;36.75;26.8;;;;;;;8.68;86.09863;94536.61;;;;
2019/04/09 02:42:58;;;;;;;37.14999;26.3;;;;;;;8.64;86.26074;94532.76;;;;
2019/04/09 02:45:09;;;;;;;37.14999;26.3;;;;;;;8.64;86.26074;94532.76;;;;
2019/04/09 02:46:21;;;;;;;37.14999;26.3;;;;;;;8.64;86.26074;94532.76;;;;
2019/04/09 02:47:30;;;;;;;37.14999;26.3;;;;;;;8.64;86.26074;94532.76;;;;
2019/04/09 02:48:39;;;;;;;37.14999;26.3;;;;;;;8.64;86.26074;94532.76;;;;
2019/04/09 02:49:46;;;;;;;37.14999;26.3;;;;;;;8.64;86.26074;94532.76;;;;
2019/04/09 02:51:10;;;;;;;37.14999;26.3;;;;;;;8.64;86.26074;94532.76;;;;
2019/04/09 02:52:19;;;;;;;37.14999;26.3;;;;;;;8.64;86.26074;94532.76;;;;
2019/04/09 02:58:53;;;;;;;34.85;25.95;;;;;;;8.66;86.65918;94522.05;;;;
2019/04/09 03:01:12;;;;;;;34.85;25.95;;;;;;;8.66;86.65918;94522.05;;;;
2019/04/09 03:02:23;;;;;;;34.85;25.95;;;;;;;8.66;86.65918;94522.05;;;;
2019/04/09 03:03:49;;;;;;;36.19999;26.6;;;;;;;8.63;86.64063;94518.1;;;;
2019/04/09 03:04:57;;;;;;;36.19999;26.6;;;;;;;8.63;86.64063;94518.1;;;;
2019/04/09 03:06:05;;;;;;;36.19999;26.6;;;;;;;8.63;86.64063;94518.1;;;;
2019/04/09 03:07:18;;;;;;;36.19999;26.6;;;;;;;8.63;86.64063;94518.1;;;;
2019/04/09 03:08:30;;;;;;;36.19999;26.6;;;;;;;8.63;86.64063;94518.1;;;;
2019/04/09 03:09:38;;;;;;;36.19999;26.6;;;;;;;8.63;86.64063;94518.1;;;;
2019/04/09 03:11:09;;;;;;;36.19999;26.6;;;;;;;8.63;86.64063;94518.1;;;;
2019/04/09 03:12:21;;;;;;;36.19999;26.6;;;;;;;8.63;86.64063;94518.1;;;;
2019/04/09 03:13:33;;;;;;;36.19999;26.6;;;;;;;8.63;86.64063;94518.1;;;;
2019/04/09 03:14:41;;;;;;;37.10001;27.15;;;;;;;8.64;86.82324;94516.62;;;;
2019/04/09 03:15:51;;;;;;;37.10001;27.15;;;;;;;8.64;86.82324;94516.62;;;;
2019/04/09 03:17:15;;;;;;;37.10001;27.15;;;;;;;8.64;86.82324;94516.62;;;;
2019/04/09 03:18:24;;;;;;;37.10001;27.15;;;;;;;8.64;86.82324;94516.62;;;;
2019/04/09 03:25:13;;;;;;;37.10001;27.15;;;;;;;8.64;86.82324;94516.62;;;;
2019/04/09 03:26:21;;;;;;;33.8;25.9;;;;;;;8.64;87.32227;94520.54;;;;
2019/04/09 03:27:37;;;;;;;33.8;25.9;;;;;;;8.64;87.32227;94520.54;;;;
2019/04/09 03:28:46;;;;;;;33.8;25.9;;;;;;;8.64;87.32227;94520.54;;;;
2019/04/09 03:31:03;;;;;;;33.8;25.9;;;;;;;8.64;87.32227;94520.54;;;;
2019/04/09 03:32:10;;;;;;;33.8;25.9;;;;;;;8.64;87.32227;94520.54;;;;
2019/04/09 03:33:36;;;;;;;33.8;25.9;;;;;;;8.64;87.32227;94520.54;;;;
2019/04/09 03:34:52;;;;;;;33.8;25.9;;;;;;;8.64;87.32227;94520.54;;;;
2019/04/09 03:36:08;;;;;;;32.7;25.4;;;;;;;8.7;87.5459;94518.34;;;;
2019/04/09 03:43:27;;;;;;;32.7;25.4;;;;;;;8.7;87.5459;94518.34;;;;
2019/04/09 03:45:03;;;;;;;32.7;25.4;;;;;;;8.7;87.5459;94518.34;;;;
2019/04/09 03:46:41;;;;;;;32.7;25.4;;;;;;;8.7;87.5459;94518.34;;;;
2019/04/09 03:47:49;;;;;;;33;25.6;;;;;;;8.64;87.58691;94524.58;;;;
2019/04/09 03:50:01;;;;;;;33;25.6;;;;;;;8.64;87.58691;94524.58;;;;
2019/04/09 03:51:56;;;;;;;33;25.6;;;;;;;8.64;87.58691;94524.58;;;;
2019/04/09 03:53:07;;;;;;;33;25.6;;;;;;;8.64;87.58691;94524.58;;;;
2019/04/09 03:59:54;;;;;;;31.95;25.25;;;;;;;8.68;88;94521.28;;;;
2019/04/09 04:01:06;;;;;;;31.95;25.25;;;;;;;8.68;88;94521.28;;;;
2019/04/09 04:02:13;;;;;;;31.95;25.25;;;;;;;8.68;88;94521.28;;;;
2019/04/09 04:03:21;;;;;;;31.95;25.25;;;;;;;8.68;88;94521.28;;;;
2019/04/09 04:09:22;;;;;;;34.5;26.15;;;;;;;8.61;87.88965;94526.42;;;;
2019/04/09 04:10:33;;;;;;;34.5;26.15;;;;;;;8.61;87.88965;94526.42;;;;
2019/04/09 04:11:43;;;;;;;34.5;26.15;;;;;;;8.61;87.88965;94526.42;;;;
2019/04/09 04:18:49;;;;;;;34.5;26.15;;;;;;;8.61;87.88965;94526.42;;;;
2019/04/09 04:21:00;;;;;;;30.65;24.75;;;;;;;8.65;88.05566;94516.4;;;;
2019/04/09 04:27:47;;;;;;;30.65;24.75;;;;;;;8.65;88.05566;94516.4;;;;
2019/04/09 04:28:58;;;;;;;30.65;24.75;;;;;;;8.65;88.05566;94516.4;;;;
2019/04/09 04:31:32;;;;;;;33.7;25.65;;;;;;;8.63;88.28516;94522.55;;;;
2019/04/09 04:32:54;;;;;;;33.7;25.65;;;;;;;8.63;88.28516;94522.55;;;;
2019/04/09 04:34:03;;;;;;;33.7;25.65;;;;;;;8.63;88.28516;94522.55;;;;
2019/04/09 04:35:12;;;;;;;33.7;25.65;;;;;;;8.63;88.28516;94522.55;;;;
2019/04/09 04:36:26;;;;;;;33.7;25.65;;;;;;;8.63;88.28516;94522.55;;;;
2019/04/09 04:37:42;;;;;;;33.7;25.65;;;;;;;8.63;88.28516;94522.55;;;;
2019/04/09 04:45:04;;;;;;;32.95;26.2;;;;;;;8.65;88.39551;94523.13;;;;
2019/04/09 04:46:21;;;;;;;32.95;26.2;;;;;;;8.65;88.39551;94523.13;;;;
2019/04/09 04:47:34;;;;;;;32.95;26.2;;;;;;;8.65;88.39551;94523.13;;;;
2019/04/09 04:48:43;;;;;;;32.95;26.2;;;;;;;8.65;88.39551;94523.13;;;;
2019/04/09 04:50:30;;;;;;;32.95;26.2;;;;;;;8.65;88.39551;94523.13;;;;
2019/04/09 04:51:39;;;;;;;35.95;26.8;;;;;;;8.62;88.33691;94530.74;;;;
2019/04/09 04:52:47;;;;;;;35.95;26.8;;;;;;;8.62;88.33691;94530.74;;;;
2019/04/09 04:54:00;;;;;;;35.95;26.8;;;;;;;8.62;88.33691;94530.74;;;;
2019/04/09 04:55:25;;;;;;;35.95;26.8;;;;;;;8.62;88.33691;94530.74;;;;
2019/04/09 04:56:42;;;;;;;35.95;26.8;;;;;;;8.62;88.33691;94530.74;;;;
2019/04/09 04:57:54;;;;;;;35.95;26.8;;;;;;;8.62;88.33691;94530.74;;;;
2019/04/09 04:59:42;;;;;;;35.95;26.8;;;;;;;8.62;88.33691;94530.74;;;;
2019/04/09 05:00:53;;;;;;;35.95;26.8;;;;;;;8.62;88.33691;94530.74;;;;
2019/04/09 05:02:05;;;;;;;31.6;24.6;;;;;;;8.7;88.61719;94530.88;;;;
2019/04/09 05:03:54;;;;;;;31.6;24.6;;;;;;;8.7;88.61719;94530.88;;;;
2019/04/09 05:08:45;;;;;;;31.6;24.6;;;;;;;8.7;88.61719;94530.88;;;;
2019/04/09 05:09:57;;;;;;;31.6;24.6;;;;;;;8.7;88.61719;94530.88;;;;
2019/04/09 05:11:09;;;;;;;31.6;24.6;;;;;;;8.7;88.61719;94530.88;;;;
2019/04/09 05:12:20;;;;;;;31.6;24.6;;;;;;;8.7;88.61719;94530.88;;;;
2019/04/09 05:13:33;;;;;;;30.15;23.8;;;;;;;8.69;88.66797;94538.26;;;;
2019/04/09 05:14:42;;;;;;;30.15;23.8;;;;;;;8.69;88.66797;94538.26;;;;
2019/04/09 05:16:21;;;;;;;30.15;23.8;;;;;;;8.69;88.66797;94538.26;;;;
2019/04/09 05:17:28;;;;;;;30.15;23.8;;;;;;;8.69;88.66797;94538.26;;;;
2019/04/09 05:24:18;;;;;;;30.85;24.6;;;;;;;8.87;88.84473;94542.08;;;;
2019/04/09 05:25:30;;;;;;;30.85;24.6;;;;;;;8.87;88.84473;94542.08;;;;
2019/04/09 05:27:40;;;;;;;30.85;24.6;;;;;;;8.87;88.84473;94542.08;;;;
2019/04/09 05:28:51;;;;;;;30.85;24.6;;;;;;;8.87;88.84473;94542.08;;;;
2019/04/09 05:30:08;;;;;;;30.85;24.6;;;;;;;8.87;88.84473;94542.08;;;;
2019/04/09 05:31:22;;;;;;;30.85;24.6;;;;;;;8.87;88.84473;94542.08;;;;
2019/04/09 05:37:55;;;;;;;30.85;24.6;;;;;;;8.87;88.84473;94542.08;;;;
2019/04/09 05:39:08;;;;;;;30.85;24.6;;;;;;;8.87;88.84473;94542.08;;;;
2019/04/09 05:45:34;;;;;;;29.2;23.74999;;;;;;;9.15;88.24219;94542.94;;;;
2019/04/09 05:46:41;;;;;;;29.2;23.74999;;;;;;;9.15;88.24219;94542.94;;;;
2019/04/09 05:47:48;;;;;;;29.2;23.74999;;;;;;;9.15;88.24219;94542.94;;;;
2019/04/09 05:49:01;;;;;;;29.2;23.74999;;;;;;;9.15;88.24219;94542.94;;;;
2019/04/09 05:50:10;;;;;;;29.2;23.74999;;;;;;;9.15;88.24219;94542.94;;;;
2019/04/09 05:51:20;;;;;;;29.2;23.74999;;;;;;;9.15;88.24219;94542.94;;;;
2019/04/09 05:52:29;;;;;;;29.2;23.74999;;;;;;;9.15;88.24219;94542.94;;;;
2019/04/09 05:53:39;;;;;;;29.2;23.74999;;;;;;;9.15;88.24219;94542.94;;;;
2019/04/09 05:59:58;;;;;;;27.9;23.1;;;;;;;9.31;88.15723;94535.78;;;;
2019/04/09 06:01:20;;;;;;;27.9;23.1;;;;;;;9.31;88.15723;94535.78;;;;
2019/04/09 06:02:29;;;;;;;27.9;23.1;;;;;;;9.31;88.15723;94535.78;;;;
2019/04/09 06:03:38;;;;;;;27.9;23.1;;;;;;;9.31;88.15723;94535.78;;;;
2019/04/09 06:04:49;;;;;;;27.9;23.1;;;;;;;9.31;88.15723;94535.78;;;;
2019/04/09 06:06:07;;;;;;;27.9;23.1;;;;;;;9.31;88.15723;94535.78;;;;
2019/04/09 06:07:29;;;;;;;29.35;22.3;;;;;;;9.69;87.76563;94534.06;;;;
2019/04/09 06:09:34;;;;;;;29.35;22.3;;;;;;;9.69;87.76563;94534.06;;;;
2019/04/09 06:10:35;;;;;;;29.35;22.3;;;;;;;9.69;87.76563;94534.06;;;;
2019/04/09 06:11:36;;;;;;;29.35;22.3;;;;;;;9.69;87.76563;94534.06;;;;
2019/04/09 06:12:37;;;;;;;29.35;22.3;;;;;;;9.69;87.76563;94534.06;;;;
2019/04/09 06:13:38;;;;;;;29.35;22.3;;;;;;;9.69;87.76563;94534.06;;;;
2019/04/09 06:14:40;;;;;;;29.35;22.3;;;;;;;9.69;87.76563;94534.06;;;;
2019/04/09 06:15:41;;;;;;;29.35;22.3;;;;;;;9.69;87.76563;94534.06;;;;
2019/04/09 06:16:42;;;;;;;29.35;22.3;;;;;;;9.69;87.76563;94534.06;;;;
2019/04/09 06:17:43;;;;;;;28.49999;22.45;;;;;;;9.97;87.29004;94523.52;;;;
2019/04/09 06:18:44;;;;;;;28.49999;22.45;;;;;;;9.97;87.29004;94523.52;;;;
2019/04/09 06:19:46;;;;;;;28.49999;22.45;;;;;;;9.97;87.29004;94523.52;;;;
2019/04/09 06:20:47;;;;;;;28.49999;22.45;;;;;;;9.97;87.29004;94523.52;;;;
2019/04/09 06:21:48;;;;;;;28.49999;22.45;;;;;;;9.97;87.29004;94523.52;;;;
2019/04/09 06:22:49;;;;;;;28.49999;22.45;;;;;;;9.97;87.29004;94523.52;;;;
2019/04/09 06:23:50;;;;;;;28.49999;22.45;;;;;;;9.97;87.29004;94523.52;;;;
2019/04/09 06:24:52;;;;;;;28.49999;22.45;;;;;;;9.97;87.29004;94523.52;;;;
2019/04/09 06:25:53;;;;;;;28.49999;22.45;;;;;;;9.97;87.29004;94523.52;;;;
2019/04/09 06:26:54;;;;;;;28.49999;22.45;;;;;;;9.97;87.29004;94523.52;;;;
2019/04/09 06:27:55;;;;;;;27.1;22.35;;;;;;;10.17;86.87207;94511.66;;;;
2019/04/09 06:28:56;;;;;;;27.1;22.35;;;;;;;10.17;86.87207;94511.66;;;;
2019/04/09 06:29:57;;;;;;;27.1;22.35;;;;;;;10.17;86.87207;94511.66;;;;
2019/04/09 06:30:59;;;;;;;27.1;22.35;;;;;;;10.17;86.87207;94511.66;;;;
2019/04/09 06:32:05;;;;;;;27.1;22.35;;;;;;;10.17;86.87207;94511.66;;;;
2019/04/09 06:33:14;;;;;;;27.1;22.35;;;;;;;10.17;86.87207;94511.66;;;;
2019/04/09 06:34:51;;;;;;;27.1;22.35;;;;;;;10.17;86.87207;94511.66;;;;
2019/04/09 06:35:59;;;;;;;27.1;22.35;;;;;;;10.17;86.87207;94511.66;;;;
2019/04/09 06:37:34;;;;;;;27.1;22.35;;;;;;;10.17;86.87207;94511.66;;;;
2019/04/09 06:43:52;;;;;;;26.5;22.45;;;;;;;10.7;86.0918;94526.67;;;;
2019/04/09 06:45:27;;;;;;;26.5;22.45;;;;;;;10.7;86.0918;94526.67;;;;
2019/04/09 06:46:51;;;;;;;26.5;22.45;;;;;;;10.7;86.0918;94526.67;;;;
2019/04/09 06:48:02;;;;;;;26.5;22.45;;;;;;;10.7;86.0918;94526.67;;;;
2019/04/09 06:49:10;;;;;;;28.75;23.45;;;;;;;11.05;85.71387;94528.34;;;;
2019/04/09 06:55:03;;;;;;;28.75;23.45;;;;;;;11.05;85.71387;94528.34;;;;
2019/04/09 06:56:19;;;;;;;28.75;23.45;;;;;;;11.05;85.71387;94528.34;;;;
2019/04/09 06:57:31;;;;;;;28.75;23.45;;;;;;;11.05;85.71387;94528.34;;;;
2019/04/09 06:58:40;;;;;;;28.75;23.45;;;;;;;11.05;85.71387;94528.34;;;;
2019/04/09 07:06:01;;;;;;;26.6;22.85;;;;;;;11.36;85.36621;94524.41;;;;
2019/04/09 07:21:56;;;;;;;24.9;22.2;;;;;;;11.98;84.26953;94518.61;;;;
2019/04/09 07:23:07;;;;;;;24.9;22.2;;;;;;;11.98;84.26953;94518.61;;;;
2019/04/09 07:24:17;;;;;;;24.9;22.2;;;;;;;11.98;84.26953;94518.61;;;;
2019/04/09 07:25:26;;;;;;;24.9;22.2;;;;;;;11.98;84.26953;94518.61;;;;
2019/04/09 07:26:35;;;;;;;24.9;22.2;;;;;;;11.98;84.26953;94518.61;;;;
2019/04/09 07:27:48;;;;;;;24.9;22.2;;;;;;;11.98;84.26953;94518.61;;;;
2019/04/09 07:28:55;;;;;;;24.9;22.2;;;;;;;11.98;84.26953;94518.61;;;;
2019/04/09 07:40:33;;;;;;;28.65;25.55;;;;;;;13.11;82.6709;94511.81;;;;
2019/04/09 07:41:49;;;;;;;28.65;25.55;;;;;;;13.11;82.6709;94511.81;;;;
2019/04/09 07:48:08;;;;;;;28.05;25.05;;;;;;;14.54;80.42969;94506.63;;;;
2019/04/09 07:49:18;;;;;;;28.05;25.05;;;;;;;14.54;80.42969;94506.63;;;;
2019/04/09 07:50:35;;;;;;;28.05;25.05;;;;;;;14.54;80.42969;94506.63;;;;
2019/04/09 07:52:18;;;;;;;28.05;25.05;;;;;;;14.54;80.42969;94506.63;;;;
2019/04/09 07:53:32;;;;;;;30.7;27.6;;;;;;;16.32;76.98535;94509.69;;;;
2019/04/09 07:54:42;;;;;;;30.7;27.6;;;;;;;16.32;76.98535;94509.69;;;;
2019/04/09 07:56:26;;;;;;;30.7;27.6;;;;;;;16.32;76.98535;94509.69;;;;
2019/04/09 07:58:43;;;;;;;30.7;27.6;;;;;;;16.32;76.98535;94509.69;;;;
2019/04/09 07:59:56;;;;;;;30.7;27.6;;;;;;;16.32;76.98535;94509.69;;;;
2019/04/09 08:01:12;;;;;;;30.7;27.6;;;;;;;16.32;76.98535;94509.69;;;;
2019/04/09 08:02:30;;;;;;;30.7;27.6;;;;;;;16.32;76.98535;94509.69;;;;
2019/04/09 08:03:40;;;;;;;30.7;27.6;;;;;;;16.32;76.98535;94509.69;;;;
2019/04/09 08:04:49;;;;;;;37.3;33.55;;;;;;;17.19;74.27148;94511.44;;;;
2019/04/09 08:06:07;;;;;;;37.3;33.55;;;;;;;17.19;74.27148;94511.44;;;;
2019/04/09 08:08:20;;;;;;;37.3;33.55;;;;;;;17.19;74.27148;94511.44;;;;
2019/04/09 08:09:34;;;;;;;37.3;33.55;;;;;;;17.19;74.27148;94511.44;;;;
2019/04/09 08:11:14;;;;;;;37.3;33.55;;;;;;;17.19;74.27148;94511.44;;;;
2019/04/09 08:13:26;;;;;;;37.3;33.55;;;;;;;17.19;74.27148;94511.44;;;;
2019/04/09 08:14:39;;;;;;;37.3;33.55;;;;;;;17.19;74.27148;94511.44;;;;
2019/04/09 08:16:06;;;;;;;36.2;32.5;;;;;;;16.43;74.04395;94507.24;;;;
2019/04/09 08:22:54;;;;;;;36.2;32.5;;;;;;;16.43;74.04395;94507.24;;;;
2019/04/09 08:25:07;;;;;;;36.2;32.5;;;;;;;16.43;74.04395;94507.24;;;;
2019/04/09 08:26:20;;;;;;;37.5;33.65;;;;;;;15.99;73.99316;94506.5;;;;
2019/04/09 08:27:30;;;;;;;37.5;33.65;;;;;;;15.99;73.99316;94506.5;;;;
2019/04/09 08:29:08;;;;;;;37.5;33.65;;;;;;;15.99;73.99316;94506.5;;;;
2019/04/09 08:30:20;;;;;;;37.5;33.65;;;;;;;15.99;73.99316;94506.5;;;;
2019/04/09 08:31:36;;;;;;;37.5;33.65;;;;;;;15.99;73.99316;94506.5;;;;
2019/04/09 08:37:55;;;;;;;37;33.2;;;;;;;15.76;73.6416;94500.89;;;;
2019/04/09 08:39:33;;;;;;;37;33.2;;;;;;;15.76;73.6416;94500.89;;;;
2019/04/09 08:40:40;;;;;;;37;33.2;;;;;;;15.76;73.6416;94500.89;;;;
2019/04/09 08:42:04;;;;;;;37;33.2;;;;;;;15.76;73.6416;94500.89;;;;
2019/04/09 08:43:15;;;;;;;37;33.2;;;;;;;15.76;73.6416;94500.89;;;;
2019/04/09 08:44:27;;;;;;;37;33.2;;;;;;;15.76;73.6416;94500.89;;;;
2019/04/09 08:45:40;;;;;;;37;33.2;;;;;;;15.76;73.6416;94500.89;;;;
2019/04/09 08:48:06;;;;;;;37;33.2;;;;;;;15.76;73.6416;94500.89;;;;
2019/04/09 08:49:29;;;;;;;37.3;33.35;;;;;;;15.79;73.18945;94500.34;;;;
2019/04/09 08:51:50;;;;;;;37.3;33.35;;;;;;;15.79;73.18945;94500.34;;;;
2019/04/09 08:58:09;;;;;;;34.34999;30.85;;;;;;;16.13;72.02051;94497.11;;;;
2019/04/09 09:03:59;;;;;;;34.34999;30.85;;;;;;;16.13;72.02051;94497.11;;;;
2019/04/09 09:05:06;;;;;;;34.34999;30.85;;;;;;;16.13;72.02051;94497.11;;;;
2019/04/09 09:06:12;;;;;;;34.34999;30.85;;;;;;;16.13;72.02051;94497.11;;;;
2019/04/09 09:07:28;;;;;;;34.34999;30.85;;;;;;;16.13;72.02051;94497.11;;;;
2019/04/09 09:13:50;;;;;;;35.05;31.4;;;;;;;16.38;71.0957;94493.55;;;;
2019/04/09 09:15:01;;;;;;;35.05;31.4;;;;;;;16.38;71.0957;94493.55;;;;
2019/04/09 09:16:09;;;;;;;35.05;31.4;;;;;;;16.38;71.0957;94493.55;;;;
2019/04/09 09:17:46;;;;;;;35.05;31.4;;;;;;;16.38;71.0957;94493.55;;;;
2019/04/09 09:29:39;;;;;;;33.65;30.2;;;;;;;18.98;66.16016;94489.84;;;;
2019/04/09 09:31:02;;;;;;;29.75;27.00001;;;;;;;23.3;58.52246;94504.85;;;;
2019/04/09 09:32:42;;;;;;;29.75;27.00001;;;;;;;23.3;58.52246;94504.85;;;;
2019/04/09 09:34:25;;;;;;;29.75;27.00001;;;;;;;23.3;58.52246;94504.85;;;;
2019/04/09 09:36:01;;;;;;;29.75;27.00001;;;;;;;23.3;58.52246;94504.85;;;;
2019/04/09 09:42:50;;;;;;;32.8;29.7;;;;;;;23.43;56.8125;94501.03;;;;
2019/04/09 09:44:15;;;;;;;32.8;29.7;;;;;;;23.43;56.8125;94501.03;;;;
2019/04/09 09:45:25;;;;;;;32.8;29.7;;;;;;;23.43;56.8125;94501.03;;;;
2019/04/09 09:46:42;;;;;;;32.8;29.7;;;;;;;23.43;56.8125;94501.03;;;;
2019/04/09 09:48:18;;;;;;;32.8;29.7;;;;;;;23.43;56.8125;94501.03;;;;
2019/04/09 09:49:55;;;;;;;32.8;29.7;;;;;;;23.43;56.8125;94501.03;;;;
2019/04/09 09:51:05;;;;;;;32.8;29.7;;;;;;;23.43;56.8125;94501.03;;;;
2019/04/09 09:52:15;;;;;;;34.25;31;;;;;;;22.61;56.79688;94505.77;;;;
2019/04/09 09:53:28;;;;;;;34.25;31;;;;;;;22.61;56.79688;94505.77;;;;
2019/04/09 09:54:37;;;;;;;34.25;31;;;;;;;22.61;56.79688;94505.77;;;;
2019/04/09 09:56:16;;;;;;;34.25;31;;;;;;;22.61;56.79688;94505.77;;;;
2019/04/09 09:57:24;;;;;;;34.25;31;;;;;;;22.61;56.79688;94505.77;;;;
2019/04/09 09:59:34;;;;;;;34.25;31;;;;;;;22.61;56.79688;94505.77;;;;
2019/04/09 10:00:40;;;;;;;34.25;31;;;;;;;22.61;56.79688;94505.77;;;;
2019/04/09 10:01:49;;;;;;;34.25;31;;;;;;;22.61;56.79688;94505.77;;;;
2019/04/09 10:04:13;;;;;;;33.95;30.65;;;;;;;20.68;57.83984;94500.39;;;;
2019/04/09 10:05:22;;;;;;;33.95;30.65;;;;;;;20.68;57.83984;94500.39;;;;
2019/04/09 10:06:30;;;;;;;33.95;30.65;;;;;;;20.68;57.83984;94500.39;;;;
2019/04/09 10:12:48;;;;;;;33.95;30.65;;;;;;;20.68;57.83984;94500.39;;;;
2019/04/09 10:14:12;;;;;;;33.95;30.65;;;;;;;19.57;57.7959;94476.84;;;;
2019/04/09 10:15:35;;;;;;;33.95;30.65;;;;;;;19.57;57.7959;94476.84;;;;
2019/04/09 10:17:06;;;;;;;33.95;30.65;;;;;;;19.57;57.7959;94476.84;;;;
2019/04/09 10:24:18;;;;;;;33.95;30.65;;;;;;;19.57;57.7959;94476.84;;;;
2019/04/09 10:25:26;;;;;;;35.3;31.85;;;;;;;20.25;55.90332;94467.86;;;;
2019/04/09 10:31:48;;;;;;;35.3;31.85;;;;;;;20.25;55.90332;94467.86;;;;
2019/04/09 10:33:00;;;;;;;35.3;31.85;;;;;;;20.25;55.90332;94467.86;;;;